Huvudsida
METAR-TAF:

METAR-TAF

Flygplatser :

Sundsvall Timrå Airport

Sundsvall-Härnösand, Sverige

latitud: 62-32N, longitud: 017-27E, höjd: 4 m

Aktuellt väderrapport

Denna rapport gjordes för 11 minuter sedan, klockan 06:20 UTC
Vind 7 kt från nord/nordväst
Temperatur 13°C
Fuktighet 54%
Tryck 1004 hPa
Sikt 10 km eller mer
Inga moln under 1 500 m eller inga cumulonimbus

METAR: ESNN 210620Z 34007KT CAVOK 13/04 Q1004

Tid: 08:31 (06:31 UTC)

Väderprognos

Denna rapport gjordes för 1 timme och 1 minuter sedan, klockan 05:30 UTC
Prognos gäller från 21 kl. 06 UTC till 21 kl. 15 UTC
Vind 10 kt från nordväst
Sikt 10 km eller mer
Inga moln under 1 500 m eller inga cumulonimbus
Blir
från 21 kl. 11 UTC till 21 kl. 13 UTC
Vind 7 kt från syd

TAF: ESNN 210530Z 2106/2115 32010KT CAVOK BECMG 2111/2113 18007KT

Aktuella väderrapporter och prognoser från 4000 flygplatser (METAR- och TAF-rapporter).

De tillgängliga stationerna syns som gula och röda prickar på kartan.

För musen över prickarna för att se namnen på stationerna.

Klicka sedan för att få väderrapporter och prognoser.

För att ändra kartan: Klicka på de gröna knapparna med ett svart kors på för att zooma in; den gröna knappen med ett streck på för att zooma ut; eller på de gröna pilarna för angränsande kartor.


METAR-TAF: